<?xml version="1.0" encoding="UTF-8" standalone="no" ?>
<gpx xmlns="http://www.topografix.com/GPX/1/1" xmlns:xsi="http://www.w3.org/2001/XMLSchema-instance" xsi:schemaLocation="http://www.topografix.com/GPX/1/1 http://www.topografix.com/GPX/1/1/gpx.xsd" version="1.1" creator="VisuGPX - https://www.visugpx.com">
  <metadata>
    <name>Labyrinthe vert depuis Nebias</name>
  </metadata>
  <wpt lat="42.8977" lon="2.11286">
    <ele>629</ele>
    <name><![CDATA[Point de passage 1]]></name>
    <type><![CDATA[GENERIC]]></type>
  </wpt>
  <wpt lat="42.8977" lon="2.11287">
    <ele>631</ele>
    <name><![CDATA[Point de passage 2]]></name>
    <type><![CDATA[GENERIC]]></type>
  </wpt>
  <trk>
    <name><![CDATA[Labyrinthe vert depuis Nebias ]]></name>
    <trkseg>
      <trkpt lat="42.8977" lon="2.11286">
        <ele>629</ele>
        <time>2026-04-10T08:36:30.000Z</time>
      </trkpt>
      <trkpt lat="42.89772" lon="2.11289">
        <ele>629</ele>
        <time>2026-04-10T08:36:32.000Z</time>
      </trkpt>
      <trkpt lat="42.8978" lon="2.11291">
        <ele>629</ele>
        <time>2026-04-10T08:37:42.000Z</time>
      </trkpt>
      <trkpt lat="42.89786" lon="2.11298">
        <ele>629</ele>
        <time>2026-04-10T08:37:53.000Z</time>
      </trkpt>
      <trkpt lat="42.89794" lon="2.11303">
        <ele>633</ele>
        <time>2026-04-10T08:38:03.000Z</time>
      </trkpt>
      <trkpt lat="42.89802" lon="2.11302">
        <ele>633</ele>
        <time>2026-04-10T08:38:17.000Z</time>
      </trkpt>
      <trkpt lat="42.89812" lon="2.11304">
        <ele>634</ele>
        <time>2026-04-10T08:38:25.000Z</time>
      </trkpt>
      <trkpt lat="42.89821" lon="2.11307">
        <ele>634</ele>
        <time>2026-04-10T08:38:32.000Z</time>
      </trkpt>
      <trkpt lat="42.8983" lon="2.11308">
        <ele>635</ele>
        <time>2026-04-10T08:38:40.000Z</time>
      </trkpt>
      <trkpt lat="42.89841" lon="2.11313">
        <ele>636</ele>
        <time>2026-04-10T08:38:51.000Z</time>
      </trkpt>
      <trkpt lat="42.8985" lon="2.11317">
        <ele>636</ele>
        <time>2026-04-10T08:39:01.000Z</time>
      </trkpt>
      <trkpt lat="42.89859" lon="2.11321">
        <ele>636</ele>
        <time>2026-04-10T08:39:09.000Z</time>
      </trkpt>
      <trkpt lat="42.89868" lon="2.11326">
        <ele>636</ele>
        <time>2026-04-10T08:39:18.000Z</time>
      </trkpt>
      <trkpt lat="42.89877" lon="2.11328">
        <ele>637</ele>
        <time>2026-04-10T08:39:26.000Z</time>
      </trkpt>
      <trkpt lat="42.89887" lon="2.11327">
        <ele>637</ele>
        <time>2026-04-10T08:39:35.000Z</time>
      </trkpt>
      <trkpt lat="42.89896" lon="2.1133">
        <ele>637</ele>
        <time>2026-04-10T08:39:44.000Z</time>
      </trkpt>
      <trkpt lat="42.89904" lon="2.11334">
        <ele>637</ele>
        <time>2026-04-10T08:39:54.000Z</time>
      </trkpt>
      <trkpt lat="42.89913" lon="2.11339">
        <ele>637</ele>
        <time>2026-04-10T08:40:03.000Z</time>
      </trkpt>
      <trkpt lat="42.89922" lon="2.11343">
        <ele>637</ele>
        <time>2026-04-10T08:40:20.000Z</time>
      </trkpt>
      <trkpt lat="42.89931" lon="2.1134">
        <ele>638</ele>
        <time>2026-04-10T08:40:26.000Z</time>
      </trkpt>
      <trkpt lat="42.89941" lon="2.11341">
        <ele>639</ele>
        <time>2026-04-10T08:40:34.000Z</time>
      </trkpt>
      <trkpt lat="42.89949" lon="2.11344">
        <ele>641</ele>
        <time>2026-04-10T08:40:42.000Z</time>
      </trkpt>
      <trkpt lat="42.89959" lon="2.11348">
        <ele>643</ele>
        <time>2026-04-10T08:40:55.000Z</time>
      </trkpt>
      <trkpt lat="42.89969" lon="2.11354">
        <ele>646</ele>
        <time>2026-04-10T08:41:27.000Z</time>
      </trkpt>
      <trkpt lat="42.89977" lon="2.11361">
        <ele>648</ele>
        <time>2026-04-10T08:41:38.000Z</time>
      </trkpt>
      <trkpt lat="42.89986" lon="2.11365">
        <ele>649</ele>
        <time>2026-04-10T08:41:49.000Z</time>
      </trkpt>
      <trkpt lat="42.89995" lon="2.1137">
        <ele>650</ele>
        <time>2026-04-10T08:42:02.000Z</time>
      </trkpt>
      <trkpt lat="42.90004" lon="2.11375">
        <ele>651</ele>
        <time>2026-04-10T08:42:12.000Z</time>
      </trkpt>
      <trkpt lat="42.90011" lon="2.11384">
        <ele>652</ele>
        <time>2026-04-10T08:42:34.000Z</time>
      </trkpt>
      <trkpt lat="42.90018" lon="2.11391">
        <ele>654</ele>
        <time>2026-04-10T08:42:44.000Z</time>
      </trkpt>
      <trkpt lat="42.90024" lon="2.11401">
        <ele>655</ele>
        <time>2026-04-10T08:43:01.000Z</time>
      </trkpt>
      <trkpt lat="42.90031" lon="2.11411">
        <ele>655</ele>
        <time>2026-04-10T08:43:09.000Z</time>
      </trkpt>
      <trkpt lat="42.9004" lon="2.11416">
        <ele>656</ele>
        <time>2026-04-10T08:43:20.000Z</time>
      </trkpt>
      <trkpt lat="42.90048" lon="2.11425">
        <ele>656</ele>
        <time>2026-04-10T08:44:20.000Z</time>
      </trkpt>
      <trkpt lat="42.90057" lon="2.11432">
        <ele>656</ele>
        <time>2026-04-10T08:44:28.000Z</time>
      </trkpt>
      <trkpt lat="42.90066" lon="2.11432">
        <ele>656</ele>
        <time>2026-04-10T08:45:56.000Z</time>
      </trkpt>
      <trkpt lat="42.90076" lon="2.11431">
        <ele>655</ele>
        <time>2026-04-10T08:46:06.000Z</time>
      </trkpt>
      <trkpt lat="42.90084" lon="2.11435">
        <ele>655</ele>
        <time>2026-04-10T08:46:18.000Z</time>
      </trkpt>
      <trkpt lat="42.90094" lon="2.1144">
        <ele>654</ele>
        <time>2026-04-10T08:46:27.000Z</time>
      </trkpt>
      <trkpt lat="42.90103" lon="2.11445">
        <ele>652</ele>
        <time>2026-04-10T08:46:36.000Z</time>
      </trkpt>
      <trkpt lat="42.90113" lon="2.11448">
        <ele>651</ele>
        <time>2026-04-10T08:46:45.000Z</time>
      </trkpt>
      <trkpt lat="42.90123" lon="2.11448">
        <ele>650</ele>
        <time>2026-04-10T08:46:54.000Z</time>
      </trkpt>
      <trkpt lat="42.90131" lon="2.11445">
        <ele>650</ele>
        <time>2026-04-10T08:47:04.000Z</time>
      </trkpt>
      <trkpt lat="42.90139" lon="2.11437">
        <ele>651</ele>
        <time>2026-04-10T08:47:14.000Z</time>
      </trkpt>
      <trkpt lat="42.90147" lon="2.1143">
        <ele>651</ele>
        <time>2026-04-10T08:47:33.000Z</time>
      </trkpt>
      <trkpt lat="42.90156" lon="2.11424">
        <ele>652</ele>
        <time>2026-04-10T08:47:39.000Z</time>
      </trkpt>
      <trkpt lat="42.90163" lon="2.11414">
        <ele>653</ele>
        <time>2026-04-10T08:47:46.000Z</time>
      </trkpt>
      <trkpt lat="42.90171" lon="2.11406">
        <ele>654</ele>
        <time>2026-04-10T08:47:56.000Z</time>
      </trkpt>
      <trkpt lat="42.90181" lon="2.11405">
        <ele>655</ele>
        <time>2026-04-10T08:48:07.000Z</time>
      </trkpt>
      <trkpt lat="42.90191" lon="2.11407">
        <ele>656</ele>
        <time>2026-04-10T08:48:16.000Z</time>
      </trkpt>
      <trkpt lat="42.902" lon="2.11411">
        <ele>657</ele>
        <time>2026-04-10T08:48:25.000Z</time>
      </trkpt>
      <trkpt lat="42.90209" lon="2.1141">
        <ele>657</ele>
        <time>2026-04-10T08:48:36.000Z</time>
      </trkpt>
      <trkpt lat="42.90218" lon="2.11408">
        <ele>657</ele>
        <time>2026-04-10T08:48:43.000Z</time>
      </trkpt>
      <trkpt lat="42.90227" lon="2.11406">
        <ele>657</ele>
        <time>2026-04-10T08:48:49.000Z</time>
      </trkpt>
      <trkpt lat="42.90234" lon="2.114">
        <ele>657</ele>
        <time>2026-04-10T08:48:57.000Z</time>
      </trkpt>
      <trkpt lat="42.90238" lon="2.11388">
        <ele>656</ele>
        <time>2026-04-10T08:49:09.000Z</time>
      </trkpt>
      <trkpt lat="42.90244" lon="2.1138">
        <ele>655</ele>
        <time>2026-04-10T08:49:21.000Z</time>
      </trkpt>
      <trkpt lat="42.90248" lon="2.11369">
        <ele>655</ele>
        <time>2026-04-10T08:49:32.000Z</time>
      </trkpt>
      <trkpt lat="42.90246" lon="2.11357">
        <ele>655</ele>
        <time>2026-04-10T08:49:42.000Z</time>
      </trkpt>
      <trkpt lat="42.90247" lon="2.11344">
        <ele>655</ele>
        <time>2026-04-10T08:49:52.000Z</time>
      </trkpt>
      <trkpt lat="42.90251" lon="2.11333">
        <ele>656</ele>
        <time>2026-04-10T08:50:00.000Z</time>
      </trkpt>
      <trkpt lat="42.90257" lon="2.11326">
        <ele>657</ele>
        <time>2026-04-10T08:50:08.000Z</time>
      </trkpt>
      <trkpt lat="42.90266" lon="2.11328">
        <ele>657</ele>
        <time>2026-04-10T08:50:19.000Z</time>
      </trkpt>
      <trkpt lat="42.90275" lon="2.11332">
        <ele>657</ele>
        <time>2026-04-10T08:50:29.000Z</time>
      </trkpt>
      <trkpt lat="42.90281" lon="2.11343">
        <ele>657</ele>
        <time>2026-04-10T08:50:47.000Z</time>
      </trkpt>
      <trkpt lat="42.90289" lon="2.11347">
        <ele>657</ele>
        <time>2026-04-10T08:51:02.000Z</time>
      </trkpt>
      <trkpt lat="42.90297" lon="2.11356">
        <ele>657</ele>
        <time>2026-04-10T08:51:11.000Z</time>
      </trkpt>
      <trkpt lat="42.90304" lon="2.11363">
        <ele>657</ele>
        <time>2026-04-10T08:51:21.000Z</time>
      </trkpt>
      <trkpt lat="42.9031" lon="2.11371">
        <ele>658</ele>
        <time>2026-04-10T08:51:40.000Z</time>
      </trkpt>
      <trkpt lat="42.90316" lon="2.1138">
        <ele>658</ele>
        <time>2026-04-10T08:51:57.000Z</time>
      </trkpt>
      <trkpt lat="42.90324" lon="2.11383">
        <ele>657</ele>
        <time>2026-04-10T08:52:08.000Z</time>
      </trkpt>
      <trkpt lat="42.90332" lon="2.11389">
        <ele>656</ele>
        <time>2026-04-10T08:52:23.000Z</time>
      </trkpt>
      <trkpt lat="42.90342" lon="2.11394">
        <ele>656</ele>
        <time>2026-04-10T08:52:43.000Z</time>
      </trkpt>
      <trkpt lat="42.90352" lon="2.11392">
        <ele>657</ele>
        <time>2026-04-10T08:52:53.000Z</time>
      </trkpt>
      <trkpt lat="42.90357" lon="2.11382">
        <ele>659</ele>
        <time>2026-04-10T08:53:07.000Z</time>
      </trkpt>
      <trkpt lat="42.90366" lon="2.11375">
        <ele>661</ele>
        <time>2026-04-10T08:53:50.000Z</time>
      </trkpt>
      <trkpt lat="42.90376" lon="2.11375">
        <ele>662</ele>
        <time>2026-04-10T08:53:59.000Z</time>
      </trkpt>
      <trkpt lat="42.90384" lon="2.11383">
        <ele>663</ele>
        <time>2026-04-10T08:54:18.000Z</time>
      </trkpt>
      <trkpt lat="42.90393" lon="2.11388">
        <ele>664</ele>
        <time>2026-04-10T08:54:27.000Z</time>
      </trkpt>
      <trkpt lat="42.90401" lon="2.11386">
        <ele>664</ele>
        <time>2026-04-10T08:54:40.000Z</time>
      </trkpt>
      <trkpt lat="42.9041" lon="2.11384">
        <ele>664</ele>
        <time>2026-04-10T08:54:51.000Z</time>
      </trkpt>
      <trkpt lat="42.90419" lon="2.11387">
        <ele>664</ele>
        <time>2026-04-10T08:55:02.000Z</time>
      </trkpt>
      <trkpt lat="42.90424" lon="2.11397">
        <ele>663</ele>
        <time>2026-04-10T08:55:13.000Z</time>
      </trkpt>
      <trkpt lat="42.90431" lon="2.11402">
        <ele>662</ele>
        <time>2026-04-10T08:55:22.000Z</time>
      </trkpt>
      <trkpt lat="42.90439" lon="2.11395">
        <ele>662</ele>
        <time>2026-04-10T08:55:43.000Z</time>
      </trkpt>
      <trkpt lat="42.90447" lon="2.11388">
        <ele>662</ele>
        <time>2026-04-10T08:55:54.000Z</time>
      </trkpt>
      <trkpt lat="42.90447" lon="2.11377">
        <ele>662</ele>
        <time>2026-04-10T08:56:07.000Z</time>
      </trkpt>
      <trkpt lat="42.90451" lon="2.11366">
        <ele>662</ele>
        <time>2026-04-10T08:56:21.000Z</time>
      </trkpt>
      <trkpt lat="42.90456" lon="2.11356">
        <ele>663</ele>
        <time>2026-04-10T08:56:41.000Z</time>
      </trkpt>
      <trkpt lat="42.90464" lon="2.11348">
        <ele>664</ele>
        <time>2026-04-10T08:57:04.000Z</time>
      </trkpt>
      <trkpt lat="42.90473" lon="2.11344">
        <ele>664</ele>
        <time>2026-04-10T08:57:20.000Z</time>
      </trkpt>
      <trkpt lat="42.90482" lon="2.11343">
        <ele>664</ele>
        <time>2026-04-10T08:57:31.000Z</time>
      </trkpt>
      <trkpt lat="42.90491" lon="2.11345">
        <ele>663</ele>
        <time>2026-04-10T08:57:50.000Z</time>
      </trkpt>
      <trkpt lat="42.905" lon="2.11344">
        <ele>662</ele>
        <time>2026-04-10T08:58:04.000Z</time>
      </trkpt>
      <trkpt lat="42.90509" lon="2.11345">
        <ele>662</ele>
        <time>2026-04-10T08:58:15.000Z</time>
      </trkpt>
      <trkpt lat="42.90518" lon="2.1134">
        <ele>662</ele>
        <time>2026-04-10T08:58:34.000Z</time>
      </trkpt>
      <trkpt lat="42.90527" lon="2.11341">
        <ele>662</ele>
        <time>2026-04-10T08:58:52.000Z</time>
      </trkpt>
      <trkpt lat="42.90535" lon="2.11335">
        <ele>663</ele>
        <time>2026-04-10T08:59:01.000Z</time>
      </trkpt>
      <trkpt lat="42.90541" lon="2.11327">
        <ele>663</ele>
        <time>2026-04-10T08:59:09.000Z</time>
      </trkpt>
      <trkpt lat="42.9055" lon="2.11325">
        <ele>663</ele>
        <time>2026-04-10T08:59:18.000Z</time>
      </trkpt>
      <trkpt lat="42.90559" lon="2.11325">
        <ele>662</ele>
        <time>2026-04-10T08:59:34.000Z</time>
      </trkpt>
      <trkpt lat="42.90567" lon="2.11317">
        <ele>660</ele>
        <time>2026-04-10T08:59:46.000Z</time>
      </trkpt>
      <trkpt lat="42.90572" lon="2.11306">
        <ele>657</ele>
        <time>2026-04-10T08:59:58.000Z</time>
      </trkpt>
      <trkpt lat="42.90578" lon="2.11297">
        <ele>655</ele>
        <time>2026-04-10T09:00:09.000Z</time>
      </trkpt>
      <trkpt lat="42.90587" lon="2.11294">
        <ele>654</ele>
        <time>2026-04-10T09:00:30.000Z</time>
      </trkpt>
      <trkpt lat="42.90595" lon="2.11288">
        <ele>653</ele>
        <time>2026-04-10T09:00:45.000Z</time>
      </trkpt>
      <trkpt lat="42.90599" lon="2.11277">
        <ele>653</ele>
        <time>2026-04-10T09:00:54.000Z</time>
      </trkpt>
      <trkpt lat="42.90604" lon="2.11268">
        <ele>653</ele>
        <time>2026-04-10T09:01:03.000Z</time>
      </trkpt>
      <trkpt lat="42.90612" lon="2.11262">
        <ele>653</ele>
        <time>2026-04-10T09:01:14.000Z</time>
      </trkpt>
      <trkpt lat="42.90622" lon="2.11261">
        <ele>653</ele>
        <time>2026-04-10T09:01:22.000Z</time>
      </trkpt>
      <trkpt lat="42.90631" lon="2.11258">
        <ele>653</ele>
        <time>2026-04-10T09:01:33.000Z</time>
      </trkpt>
      <trkpt lat="42.90641" lon="2.1126">
        <ele>652</ele>
        <time>2026-04-10T09:01:43.000Z</time>
      </trkpt>
      <trkpt lat="42.90649" lon="2.1126">
        <ele>652</ele>
        <time>2026-04-10T09:02:06.000Z</time>
      </trkpt>
      <trkpt lat="42.90657" lon="2.11252">
        <ele>652</ele>
        <time>2026-04-10T09:02:15.000Z</time>
      </trkpt>
      <trkpt lat="42.90664" lon="2.11243">
        <ele>651</ele>
        <time>2026-04-10T09:02:24.000Z</time>
      </trkpt>
      <trkpt lat="42.9067" lon="2.11235">
        <ele>651</ele>
        <time>2026-04-10T09:02:34.000Z</time>
      </trkpt>
      <trkpt lat="42.90676" lon="2.11226">
        <ele>650</ele>
        <time>2026-04-10T09:02:55.000Z</time>
      </trkpt>
      <trkpt lat="42.90677" lon="2.11213">
        <ele>650</ele>
        <time>2026-04-10T09:02:57.000Z</time>
      </trkpt>
      <trkpt lat="42.90684" lon="2.11208">
        <ele>650</ele>
        <time>2026-04-10T09:03:17.000Z</time>
      </trkpt>
      <trkpt lat="42.90692" lon="2.11201">
        <ele>650</ele>
        <time>2026-04-10T09:03:25.000Z</time>
      </trkpt>
      <trkpt lat="42.907" lon="2.11191">
        <ele>649</ele>
        <time>2026-04-10T09:03:37.000Z</time>
      </trkpt>
      <trkpt lat="42.90707" lon="2.11185">
        <ele>649</ele>
        <time>2026-04-10T09:03:45.000Z</time>
      </trkpt>
      <trkpt lat="42.90715" lon="2.1118">
        <ele>649</ele>
        <time>2026-04-10T09:03:52.000Z</time>
      </trkpt>
      <trkpt lat="42.90723" lon="2.11174">
        <ele>649</ele>
        <time>2026-04-10T09:03:59.000Z</time>
      </trkpt>
      <trkpt lat="42.90731" lon="2.11166">
        <ele>649</ele>
        <time>2026-04-10T09:04:07.000Z</time>
      </trkpt>
      <trkpt lat="42.90736" lon="2.11155">
        <ele>650</ele>
        <time>2026-04-10T09:04:17.000Z</time>
      </trkpt>
      <trkpt lat="42.90741" lon="2.11145">
        <ele>650</ele>
        <time>2026-04-10T09:04:25.000Z</time>
      </trkpt>
      <trkpt lat="42.90748" lon="2.11139">
        <ele>651</ele>
        <time>2026-04-10T09:04:33.000Z</time>
      </trkpt>
      <trkpt lat="42.90757" lon="2.11136">
        <ele>652</ele>
        <time>2026-04-10T09:04:41.000Z</time>
      </trkpt>
      <trkpt lat="42.90767" lon="2.1113">
        <ele>653</ele>
        <time>2026-04-10T09:04:50.000Z</time>
      </trkpt>
      <trkpt lat="42.90775" lon="2.11121">
        <ele>653</ele>
        <time>2026-04-10T09:04:58.000Z</time>
      </trkpt>
      <trkpt lat="42.90782" lon="2.1111">
        <ele>653</ele>
        <time>2026-04-10T09:05:09.000Z</time>
      </trkpt>
      <trkpt lat="42.90789" lon="2.11101">
        <ele>653</ele>
        <time>2026-04-10T09:05:18.000Z</time>
      </trkpt>
      <trkpt lat="42.90799" lon="2.11097">
        <ele>653</ele>
        <time>2026-04-10T09:05:28.000Z</time>
      </trkpt>
      <trkpt lat="42.90808" lon="2.11089">
        <ele>654</ele>
        <time>2026-04-10T09:05:38.000Z</time>
      </trkpt>
      <trkpt lat="42.90817" lon="2.11082">
        <ele>654</ele>
        <time>2026-04-10T09:05:51.000Z</time>
      </trkpt>
      <trkpt lat="42.90825" lon="2.11075">
        <ele>654</ele>
        <time>2026-04-10T09:06:02.000Z</time>
      </trkpt>
      <trkpt lat="42.90834" lon="2.11071">
        <ele>653</ele>
        <time>2026-04-10T09:06:12.000Z</time>
      </trkpt>
      <trkpt lat="42.90843" lon="2.11068">
        <ele>652</ele>
        <time>2026-04-10T09:06:19.000Z</time>
      </trkpt>
      <trkpt lat="42.90852" lon="2.11062">
        <ele>651</ele>
        <time>2026-04-10T09:06:29.000Z</time>
      </trkpt>
      <trkpt lat="42.90861" lon="2.11057">
        <ele>650</ele>
        <time>2026-04-10T09:06:53.000Z</time>
      </trkpt>
      <trkpt lat="42.9087" lon="2.11055">
        <ele>650</ele>
        <time>2026-04-10T09:07:04.000Z</time>
      </trkpt>
      <trkpt lat="42.90879" lon="2.11054">
        <ele>649</ele>
        <time>2026-04-10T09:07:12.000Z</time>
      </trkpt>
      <trkpt lat="42.90889" lon="2.11052">
        <ele>650</ele>
        <time>2026-04-10T09:07:23.000Z</time>
      </trkpt>
      <trkpt lat="42.90898" lon="2.11046">
        <ele>650</ele>
        <time>2026-04-10T09:07:32.000Z</time>
      </trkpt>
      <trkpt lat="42.90907" lon="2.11041">
        <ele>649</ele>
        <time>2026-04-10T09:07:42.000Z</time>
      </trkpt>
      <trkpt lat="42.90916" lon="2.11036">
        <ele>649</ele>
        <time>2026-04-10T09:07:49.000Z</time>
      </trkpt>
      <trkpt lat="42.90925" lon="2.11028">
        <ele>648</ele>
        <time>2026-04-10T09:07:58.000Z</time>
      </trkpt>
      <trkpt lat="42.90931" lon="2.11018">
        <ele>648</ele>
        <time>2026-04-10T09:08:32.000Z</time>
      </trkpt>
      <trkpt lat="42.90937" lon="2.11006">
        <ele>647</ele>
        <time>2026-04-10T09:08:41.000Z</time>
      </trkpt>
      <trkpt lat="42.90945" lon="2.10997">
        <ele>647</ele>
        <time>2026-04-10T09:08:49.000Z</time>
      </trkpt>
      <trkpt lat="42.90954" lon="2.10989">
        <ele>647</ele>
        <time>2026-04-10T09:08:57.000Z</time>
      </trkpt>
      <trkpt lat="42.9096" lon="2.10979">
        <ele>647</ele>
        <time>2026-04-10T09:09:05.000Z</time>
      </trkpt>
      <trkpt lat="42.90963" lon="2.10966">
        <ele>648</ele>
        <time>2026-04-10T09:09:17.000Z</time>
      </trkpt>
      <trkpt lat="42.90965" lon="2.10955">
        <ele>648</ele>
        <time>2026-04-10T09:09:25.000Z</time>
      </trkpt>
      <trkpt lat="42.90969" lon="2.10945">
        <ele>649</ele>
        <time>2026-04-10T09:09:32.000Z</time>
      </trkpt>
      <trkpt lat="42.90972" lon="2.10933">
        <ele>649</ele>
        <time>2026-04-10T09:09:41.000Z</time>
      </trkpt>
      <trkpt lat="42.90972" lon="2.10918">
        <ele>648</ele>
        <time>2026-04-10T09:09:51.000Z</time>
      </trkpt>
      <trkpt lat="42.90974" lon="2.10905">
        <ele>648</ele>
        <time>2026-04-10T09:10:00.000Z</time>
      </trkpt>
      <trkpt lat="42.90978" lon="2.10893">
        <ele>647</ele>
        <time>2026-04-10T09:10:09.000Z</time>
      </trkpt>
      <trkpt lat="42.90983" lon="2.10884">
        <ele>647</ele>
        <time>2026-04-10T09:10:17.000Z</time>
      </trkpt>
      <trkpt lat="42.9098" lon="2.10872">
        <ele>647</ele>
        <time>2026-04-10T09:10:26.000Z</time>
      </trkpt>
      <trkpt lat="42.90976" lon="2.10859">
        <ele>646</ele>
        <time>2026-04-10T09:10:47.000Z</time>
      </trkpt>
      <trkpt lat="42.90974" lon="2.10848">
        <ele>646</ele>
        <time>2026-04-10T09:10:57.000Z</time>
      </trkpt>
      <trkpt lat="42.90972" lon="2.10835">
        <ele>646</ele>
        <time>2026-04-10T09:11:05.000Z</time>
      </trkpt>
      <trkpt lat="42.90972" lon="2.10823">
        <ele>646</ele>
        <time>2026-04-10T09:11:22.000Z</time>
      </trkpt>
      <trkpt lat="42.90976" lon="2.10813">
        <ele>645</ele>
        <time>2026-04-10T09:11:33.000Z</time>
      </trkpt>
      <trkpt lat="42.90977" lon="2.108">
        <ele>645</ele>
        <time>2026-04-10T09:11:41.000Z</time>
      </trkpt>
      <trkpt lat="42.90978" lon="2.10787">
        <ele>644</ele>
        <time>2026-04-10T09:11:50.000Z</time>
      </trkpt>
      <trkpt lat="42.90982" lon="2.10776">
        <ele>644</ele>
        <time>2026-04-10T09:12:00.000Z</time>
      </trkpt>
      <trkpt lat="42.9099" lon="2.10779">
        <ele>644</ele>
        <time>2026-04-10T09:12:29.000Z</time>
      </trkpt>
      <trkpt lat="42.90998" lon="2.10786">
        <ele>644</ele>
        <time>2026-04-10T09:12:40.000Z</time>
      </trkpt>
      <trkpt lat="42.91003" lon="2.10796">
        <ele>645</ele>
        <time>2026-04-10T09:12:48.000Z</time>
      </trkpt>
      <trkpt lat="42.91009" lon="2.10805">
        <ele>645</ele>
        <time>2026-04-10T09:12:56.000Z</time>
      </trkpt>
      <trkpt lat="42.91018" lon="2.10808">
        <ele>646</ele>
        <time>2026-04-10T09:13:05.000Z</time>
      </trkpt>
      <trkpt lat="42.91027" lon="2.10811">
        <ele>646</ele>
        <time>2026-04-10T09:13:17.000Z</time>
      </trkpt>
      <trkpt lat="42.91035" lon="2.10817">
        <ele>646</ele>
        <time>2026-04-10T09:13:29.000Z</time>
      </trkpt>
      <trkpt lat="42.91044" lon="2.10817">
        <ele>646</ele>
        <time>2026-04-10T09:14:00.000Z</time>
      </trkpt>
      <trkpt lat="42.91054" lon="2.1082">
        <ele>646</ele>
        <time>2026-04-10T09:14:09.000Z</time>
      </trkpt>
      <trkpt lat="42.91062" lon="2.10827">
        <ele>646</ele>
        <time>2026-04-10T09:14:18.000Z</time>
      </trkpt>
      <trkpt lat="42.91071" lon="2.10835">
        <ele>646</ele>
        <time>2026-04-10T09:14:31.000Z</time>
      </trkpt>
      <trkpt lat="42.91081" lon="2.1084">
        <ele>646</ele>
        <time>2026-04-10T09:14:41.000Z</time>
      </trkpt>
      <trkpt lat="42.91091" lon="2.10837">
        <ele>645</ele>
        <time>2026-04-10T09:14:50.000Z</time>
      </trkpt>
      <trkpt lat="42.911" lon="2.10835">
        <ele>644</ele>
        <time>2026-04-10T09:15:01.000Z</time>
      </trkpt>
      <trkpt lat="42.91109" lon="2.10834">
        <ele>643</ele>
        <time>2026-04-10T09:15:08.000Z</time>
      </trkpt>
      <trkpt lat="42.91118" lon="2.10831">
        <ele>641</ele>
        <time>2026-04-10T09:15:16.000Z</time>
      </trkpt>
      <trkpt lat="42.91128" lon="2.10825">
        <ele>640</ele>
        <time>2026-04-10T09:15:25.000Z</time>
      </trkpt>
      <trkpt lat="42.91137" lon="2.10822">
        <ele>638</ele>
        <time>2026-04-10T09:15:36.000Z</time>
      </trkpt>
      <trkpt lat="42.91147" lon="2.10824">
        <ele>637</ele>
        <time>2026-04-10T09:15:48.000Z</time>
      </trkpt>
      <trkpt lat="42.91156" lon="2.10827">
        <ele>637</ele>
        <time>2026-04-10T09:15:58.000Z</time>
      </trkpt>
      <trkpt lat="42.91165" lon="2.10832">
        <ele>636</ele>
        <time>2026-04-10T09:16:10.000Z</time>
      </trkpt>
      <trkpt lat="42.91173" lon="2.10837">
        <ele>635</ele>
        <time>2026-04-10T09:16:17.000Z</time>
      </trkpt>
      <trkpt lat="42.91181" lon="2.10845">
        <ele>634</ele>
        <time>2026-04-10T09:16:27.000Z</time>
      </trkpt>
      <trkpt lat="42.91189" lon="2.10851">
        <ele>634</ele>
        <time>2026-04-10T09:16:43.000Z</time>
      </trkpt>
      <trkpt lat="42.91195" lon="2.10844">
        <ele>634</ele>
        <time>2026-04-10T09:16:52.000Z</time>
      </trkpt>
      <trkpt lat="42.91203" lon="2.10831">
        <ele>633</ele>
        <time>2026-04-10T09:18:31.000Z</time>
      </trkpt>
      <trkpt lat="42.91208" lon="2.10817">
        <ele>633</ele>
        <time>2026-04-10T09:18:40.000Z</time>
      </trkpt>
      <trkpt lat="42.91204" lon="2.10805">
        <ele>633</ele>
        <time>2026-04-10T09:18:47.000Z</time>
      </trkpt>
      <trkpt lat="42.912" lon="2.10794">
        <ele>634</ele>
        <time>2026-04-10T09:19:01.000Z</time>
      </trkpt>
      <trkpt lat="42.91198" lon="2.10782">
        <ele>635</ele>
        <time>2026-04-10T09:19:27.000Z</time>
      </trkpt>
      <trkpt lat="42.91197" lon="2.1077">
        <ele>636</ele>
        <time>2026-04-10T09:19:49.000Z</time>
      </trkpt>
      <trkpt lat="42.912" lon="2.10755">
        <ele>637</ele>
        <time>2026-04-10T09:19:57.000Z</time>
      </trkpt>
      <trkpt lat="42.91205" lon="2.10742">
        <ele>637</ele>
        <time>2026-04-10T09:20:23.000Z</time>
      </trkpt>
      <trkpt lat="42.91211" lon="2.10733">
        <ele>637</ele>
        <time>2026-04-10T09:20:30.000Z</time>
      </trkpt>
      <trkpt lat="42.91213" lon="2.10722">
        <ele>637</ele>
        <time>2026-04-10T09:20:39.000Z</time>
      </trkpt>
      <trkpt lat="42.91216" lon="2.10709">
        <ele>637</ele>
        <time>2026-04-10T09:20:55.000Z</time>
      </trkpt>
      <trkpt lat="42.91223" lon="2.10702">
        <ele>637</ele>
        <time>2026-04-10T09:21:31.000Z</time>
      </trkpt>
      <trkpt lat="42.91229" lon="2.10693">
        <ele>637</ele>
        <time>2026-04-10T09:21:58.000Z</time>
      </trkpt>
      <trkpt lat="42.91236" lon="2.10687">
        <ele>638</ele>
        <time>2026-04-10T09:22:02.000Z</time>
      </trkpt>
      <trkpt lat="42.91244" lon="2.10681">
        <ele>638</ele>
        <time>2026-04-10T09:22:09.000Z</time>
      </trkpt>
      <trkpt lat="42.91251" lon="2.10674">
        <ele>638</ele>
        <time>2026-04-10T09:22:20.000Z</time>
      </trkpt>
      <trkpt lat="42.91254" lon="2.1066">
        <ele>637</ele>
        <time>2026-04-10T09:22:34.000Z</time>
      </trkpt>
      <trkpt lat="42.91257" lon="2.10647">
        <ele>636</ele>
        <time>2026-04-10T09:22:45.000Z</time>
      </trkpt>
      <trkpt lat="42.91264" lon="2.10639">
        <ele>635</ele>
        <time>2026-04-10T09:22:51.000Z</time>
      </trkpt>
      <trkpt lat="42.91272" lon="2.10631">
        <ele>635</ele>
        <time>2026-04-10T09:22:57.000Z</time>
      </trkpt>
      <trkpt lat="42.91278" lon="2.10621">
        <ele>634</ele>
        <time>2026-04-10T09:23:04.000Z</time>
      </trkpt>
      <trkpt lat="42.91283" lon="2.1061">
        <ele>634</ele>
        <time>2026-04-10T09:23:16.000Z</time>
      </trkpt>
      <trkpt lat="42.91284" lon="2.10596">
        <ele>633</ele>
        <time>2026-04-10T09:23:24.000Z</time>
      </trkpt>
      <trkpt lat="42.91285" lon="2.10582">
        <ele>631</ele>
        <time>2026-04-10T09:23:40.000Z</time>
      </trkpt>
      <trkpt lat="42.91289" lon="2.10571">
        <ele>629</ele>
        <time>2026-04-10T09:23:49.000Z</time>
      </trkpt>
      <trkpt lat="42.91291" lon="2.10559">
        <ele>629</ele>
        <time>2026-04-10T09:23:59.000Z</time>
      </trkpt>
      <trkpt lat="42.91285" lon="2.10551">
        <ele>629</ele>
        <time>2026-04-10T09:24:11.000Z</time>
      </trkpt>
      <trkpt lat="42.91275" lon="2.10549">
        <ele>630</ele>
        <time>2026-04-10T09:24:20.000Z</time>
      </trkpt>
      <trkpt lat="42.91266" lon="2.10551">
        <ele>632</ele>
        <time>2026-04-10T09:24:52.000Z</time>
      </trkpt>
      <trkpt lat="42.91256" lon="2.10548">
        <ele>634</ele>
        <time>2026-04-10T09:25:33.000Z</time>
      </trkpt>
      <trkpt lat="42.91247" lon="2.1055">
        <ele>635</ele>
        <time>2026-04-10T09:25:40.000Z</time>
      </trkpt>
      <trkpt lat="42.91238" lon="2.10552">
        <ele>636</ele>
        <time>2026-04-10T09:25:58.000Z</time>
      </trkpt>
      <trkpt lat="42.91234" lon="2.10561">
        <ele>637</ele>
        <time>2026-04-10T09:26:49.000Z</time>
      </trkpt>
      <trkpt lat="42.91226" lon="2.10566">
        <ele>637</ele>
        <time>2026-04-10T09:27:06.000Z</time>
      </trkpt>
      <trkpt lat="42.91219" lon="2.10573">
        <ele>637</ele>
        <time>2026-04-10T09:27:30.000Z</time>
      </trkpt>
      <trkpt lat="42.9121" lon="2.10575">
        <ele>637</ele>
        <time>2026-04-10T09:27:39.000Z</time>
      </trkpt>
      <trkpt lat="42.91201" lon="2.10573">
        <ele>637</ele>
        <time>2026-04-10T09:27:50.000Z</time>
      </trkpt>
      <trkpt lat="42.91192" lon="2.10571">
        <ele>637</ele>
        <time>2026-04-10T09:27:59.000Z</time>
      </trkpt>
      <trkpt lat="42.91182" lon="2.10571">
        <ele>638</ele>
        <time>2026-04-10T09:28:12.000Z</time>
      </trkpt>
      <trkpt lat="42.91174" lon="2.10569">
        <ele>638</ele>
        <time>2026-04-10T09:28:30.000Z</time>
      </trkpt>
      <trkpt lat="42.91166" lon="2.10573">
        <ele>638</ele>
        <time>2026-04-10T09:28:51.000Z</time>
      </trkpt>
      <trkpt lat="42.91158" lon="2.10574">
        <ele>639</ele>
        <time>2026-04-10T09:28:59.000Z</time>
      </trkpt>
      <trkpt lat="42.91154" lon="2.10586">
        <ele>640</ele>
        <time>2026-04-10T09:29:33.000Z</time>
      </trkpt>
      <trkpt lat="42.91155" lon="2.10595">
        <ele>642</ele>
        <time>2026-04-10T09:29:49.000Z</time>
      </trkpt>
      <trkpt lat="42.91151" lon="2.10589">
        <ele>642</ele>
        <time>2026-04-10T09:30:16.000Z</time>
      </trkpt>
      <trkpt lat="42.91142" lon="2.10594">
        <ele>643</ele>
        <time>2026-04-10T09:30:28.000Z</time>
      </trkpt>
      <trkpt lat="42.91138" lon="2.10605">
        <ele>643</ele>
        <time>2026-04-10T09:30:44.000Z</time>
      </trkpt>
      <trkpt lat="42.91128" lon="2.10605">
        <ele>643</ele>
        <time>2026-04-10T09:31:13.000Z</time>
      </trkpt>
      <trkpt lat="42.91117" lon="2.10605">
        <ele>642</ele>
        <time>2026-04-10T09:31:20.000Z</time>
      </trkpt>
      <trkpt lat="42.9111" lon="2.10608">
        <ele>642</ele>
        <time>2026-04-10T09:31:37.000Z</time>
      </trkpt>
      <trkpt lat="42.91108" lon="2.10598">
        <ele>642</ele>
        <time>2026-04-10T09:32:02.000Z</time>
      </trkpt>
      <trkpt lat="42.91109" lon="2.10586">
        <ele>642</ele>
        <time>2026-04-10T09:32:12.000Z</time>
      </trkpt>
      <trkpt lat="42.91107" lon="2.10572">
        <ele>643</ele>
        <time>2026-04-10T09:32:24.000Z</time>
      </trkpt>
      <trkpt lat="42.91106" lon="2.10552">
        <ele>643</ele>
        <time>2026-04-10T09:32:52.000Z</time>
      </trkpt>
      <trkpt lat="42.91108" lon="2.1056">
        <ele>643</ele>
        <time>2026-04-10T09:34:00.000Z</time>
      </trkpt>
      <trkpt lat="42.91109" lon="2.10573">
        <ele>643</ele>
        <time>2026-04-10T09:34:12.000Z</time>
      </trkpt>
      <trkpt lat="42.91104" lon="2.10585">
        <ele>643</ele>
        <time>2026-04-10T09:34:22.000Z</time>
      </trkpt>
      <trkpt lat="42.91095" lon="2.10587">
        <ele>642</ele>
        <time>2026-04-10T09:35:16.000Z</time>
      </trkpt>
      <trkpt lat="42.91086" lon="2.10589">
        <ele>640</ele>
        <time>2026-04-10T09:35:25.000Z</time>
      </trkpt>
      <trkpt lat="42.91078" lon="2.10595">
        <ele>640</ele>
        <time>2026-04-10T09:35:32.000Z</time>
      </trkpt>
      <trkpt lat="42.91069" lon="2.10599">
        <ele>639</ele>
        <time>2026-04-10T09:35:45.000Z</time>
      </trkpt>
      <trkpt lat="42.9106" lon="2.10598">
        <ele>639</ele>
        <time>2026-04-10T09:36:01.000Z</time>
      </trkpt>
      <trkpt lat="42.91053" lon="2.10596">
        <ele>640</ele>
        <time>2026-04-10T09:36:31.000Z</time>
      </trkpt>
      <trkpt lat="42.91059" lon="2.10602">
        <ele>640</ele>
        <time>2026-04-10T09:38:25.000Z</time>
      </trkpt>
      <trkpt lat="42.91066" lon="2.10605">
        <ele>641</ele>
        <time>2026-04-10T09:38:33.000Z</time>
      </trkpt>
      <trkpt lat="42.91061" lon="2.10611">
        <ele>641</ele>
        <time>2026-04-10T09:38:55.000Z</time>
      </trkpt>
      <trkpt lat="42.91052" lon="2.10614">
        <ele>641</ele>
        <time>2026-04-10T09:39:04.000Z</time>
      </trkpt>
      <trkpt lat="42.91044" lon="2.10618">
        <ele>641</ele>
        <time>2026-04-10T09:39:16.000Z</time>
      </trkpt>
      <trkpt lat="42.91036" lon="2.10617">
        <ele>640</ele>
        <time>2026-04-10T09:39:25.000Z</time>
      </trkpt>
      <trkpt lat="42.91027" lon="2.10626">
        <ele>640</ele>
        <time>2026-04-10T09:39:39.000Z</time>
      </trkpt>
      <trkpt lat="42.91019" lon="2.10633">
        <ele>640</ele>
        <time>2026-04-10T09:39:48.000Z</time>
      </trkpt>
      <trkpt lat="42.91012" lon="2.10641">
        <ele>639</ele>
        <time>2026-04-10T09:39:58.000Z</time>
      </trkpt>
      <trkpt lat="42.91003" lon="2.10641">
        <ele>638</ele>
        <time>2026-04-10T09:40:11.000Z</time>
      </trkpt>
      <trkpt lat="42.90993" lon="2.10638">
        <ele>637</ele>
        <time>2026-04-10T09:40:26.000Z</time>
      </trkpt>
      <trkpt lat="42.90985" lon="2.10634">
        <ele>636</ele>
        <time>2026-04-10T09:40:43.000Z</time>
      </trkpt>
      <trkpt lat="42.90975" lon="2.10633">
        <ele>636</ele>
        <time>2026-04-10T09:40:59.000Z</time>
      </trkpt>
      <trkpt lat="42.90966" lon="2.10633">
        <ele>636</ele>
        <time>2026-04-10T09:41:11.000Z</time>
      </trkpt>
      <trkpt lat="42.90962" lon="2.10644">
        <ele>637</ele>
        <time>2026-04-10T09:41:28.000Z</time>
      </trkpt>
      <trkpt lat="42.90958" lon="2.10655">
        <ele>638</ele>
        <time>2026-04-10T09:41:50.000Z</time>
      </trkpt>
      <trkpt lat="42.90949" lon="2.10662">
        <ele>639</ele>
        <time>2026-04-10T09:42:07.000Z</time>
      </trkpt>
      <trkpt lat="42.90945" lon="2.10671">
        <ele>640</ele>
        <time>2026-04-10T09:42:22.000Z</time>
      </trkpt>
      <trkpt lat="42.90937" lon="2.10671">
        <ele>639</ele>
        <time>2026-04-10T09:42:51.000Z</time>
      </trkpt>
      <trkpt lat="42.90928" lon="2.10673">
        <ele>639</ele>
        <time>2026-04-10T09:43:05.000Z</time>
      </trkpt>
      <trkpt lat="42.9092" lon="2.10677">
        <ele>639</ele>
        <time>2026-04-10T09:43:11.000Z</time>
      </trkpt>
      <trkpt lat="42.9091" lon="2.10681">
        <ele>640</ele>
        <time>2026-04-10T09:43:20.000Z</time>
      </trkpt>
      <trkpt lat="42.90901" lon="2.10683">
        <ele>640</ele>
        <time>2026-04-10T09:43:30.000Z</time>
      </trkpt>
      <trkpt lat="42.90895" lon="2.10687">
        <ele>640</ele>
        <time>2026-04-10T09:43:52.000Z</time>
      </trkpt>
      <trkpt lat="42.90898" lon="2.10696">
        <ele>640</ele>
        <time>2026-04-10T09:44:01.000Z</time>
      </trkpt>
      <trkpt lat="42.90898" lon="2.10708">
        <ele>639</ele>
        <time>2026-04-10T09:44:19.000Z</time>
      </trkpt>
      <trkpt lat="42.90894" lon="2.10718">
        <ele>639</ele>
        <time>2026-04-10T09:44:28.000Z</time>
      </trkpt>
      <trkpt lat="42.90887" lon="2.10716">
        <ele>640</ele>
        <time>2026-04-10T09:44:50.000Z</time>
      </trkpt>
      <trkpt lat="42.90881" lon="2.10707">
        <ele>641</ele>
        <time>2026-04-10T09:45:03.000Z</time>
      </trkpt>
      <trkpt lat="42.90873" lon="2.10706">
        <ele>641</ele>
        <time>2026-04-10T09:45:12.000Z</time>
      </trkpt>
      <trkpt lat="42.90864" lon="2.10702">
        <ele>641</ele>
        <time>2026-04-10T09:45:20.000Z</time>
      </trkpt>
      <trkpt lat="42.90855" lon="2.10704">
        <ele>641</ele>
        <time>2026-04-10T09:45:27.000Z</time>
      </trkpt>
      <trkpt lat="42.90846" lon="2.10707">
        <ele>642</ele>
        <time>2026-04-10T09:45:42.000Z</time>
      </trkpt>
      <trkpt lat="42.90835" lon="2.10709">
        <ele>642</ele>
        <time>2026-04-10T09:46:00.000Z</time>
      </trkpt>
      <trkpt lat="42.90826" lon="2.10712">
        <ele>642</ele>
        <time>2026-04-10T09:46:08.000Z</time>
      </trkpt>
      <trkpt lat="42.90817" lon="2.10714">
        <ele>641</ele>
        <time>2026-04-10T09:46:19.000Z</time>
      </trkpt>
      <trkpt lat="42.90808" lon="2.10718">
        <ele>640</ele>
        <time>2026-04-10T09:46:34.000Z</time>
      </trkpt>
      <trkpt lat="42.90799" lon="2.10724">
        <ele>640</ele>
        <time>2026-04-10T09:46:43.000Z</time>
      </trkpt>
      <trkpt lat="42.90791" lon="2.10728">
        <ele>640</ele>
        <time>2026-04-10T09:46:52.000Z</time>
      </trkpt>
      <trkpt lat="42.90781" lon="2.10727">
        <ele>641</ele>
        <time>2026-04-10T09:47:03.000Z</time>
      </trkpt>
      <trkpt lat="42.90773" lon="2.10725">
        <ele>643</ele>
        <time>2026-04-10T09:47:14.000Z</time>
      </trkpt>
      <trkpt lat="42.90764" lon="2.10727">
        <ele>644</ele>
        <time>2026-04-10T09:47:20.000Z</time>
      </trkpt>
      <trkpt lat="42.90756" lon="2.10736">
        <ele>644</ele>
        <time>2026-04-10T09:47:32.000Z</time>
      </trkpt>
      <trkpt lat="42.90749" lon="2.10746">
        <ele>644</ele>
        <time>2026-04-10T09:47:44.000Z</time>
      </trkpt>
      <trkpt lat="42.90742" lon="2.10755">
        <ele>644</ele>
        <time>2026-04-10T09:47:59.000Z</time>
      </trkpt>
      <trkpt lat="42.90736" lon="2.10762">
        <ele>644</ele>
        <time>2026-04-10T09:48:07.000Z</time>
      </trkpt>
      <trkpt lat="42.90739" lon="2.10771">
        <ele>644</ele>
        <time>2026-04-10T09:48:31.000Z</time>
      </trkpt>
      <trkpt lat="42.90745" lon="2.1078">
        <ele>644</ele>
        <time>2026-04-10T09:48:51.000Z</time>
      </trkpt>
      <trkpt lat="42.90753" lon="2.10778">
        <ele>645</ele>
        <time>2026-04-10T09:49:05.000Z</time>
      </trkpt>
      <trkpt lat="42.90749" lon="2.10786">
        <ele>645</ele>
        <time>2026-04-10T09:52:01.000Z</time>
      </trkpt>
      <trkpt lat="42.90745" lon="2.10797">
        <ele>644</ele>
        <time>2026-04-10T09:52:15.000Z</time>
      </trkpt>
      <trkpt lat="42.90736" lon="2.10799">
        <ele>643</ele>
        <time>2026-04-10T09:52:29.000Z</time>
      </trkpt>
      <trkpt lat="42.90727" lon="2.10798">
        <ele>642</ele>
        <time>2026-04-10T09:52:41.000Z</time>
      </trkpt>
      <trkpt lat="42.9072" lon="2.1079">
        <ele>641</ele>
        <time>2026-04-10T09:52:56.000Z</time>
      </trkpt>
      <trkpt lat="42.90712" lon="2.10783">
        <ele>641</ele>
        <time>2026-04-10T09:53:33.000Z</time>
      </trkpt>
      <trkpt lat="42.90707" lon="2.10775">
        <ele>642</ele>
        <time>2026-04-10T09:54:15.000Z</time>
      </trkpt>
      <trkpt lat="42.90698" lon="2.10775">
        <ele>642</ele>
        <time>2026-04-10T09:54:52.000Z</time>
      </trkpt>
      <trkpt lat="42.90692" lon="2.10783">
        <ele>643</ele>
        <time>2026-04-10T09:55:07.000Z</time>
      </trkpt>
      <trkpt lat="42.90684" lon="2.10787">
        <ele>644</ele>
        <time>2026-04-10T09:55:18.000Z</time>
      </trkpt>
      <trkpt lat="42.90676" lon="2.10789">
        <ele>645</ele>
        <time>2026-04-10T09:57:26.000Z</time>
      </trkpt>
      <trkpt lat="42.90677" lon="2.10802">
        <ele>645</ele>
        <time>2026-04-10T09:58:12.000Z</time>
      </trkpt>
      <trkpt lat="42.90678" lon="2.10814">
        <ele>647</ele>
        <time>2026-04-10T09:58:24.000Z</time>
      </trkpt>
      <trkpt lat="42.90677" lon="2.10826">
        <ele>646</ele>
        <time>2026-04-10T09:58:35.000Z</time>
      </trkpt>
      <trkpt lat="42.90674" lon="2.10837">
        <ele>645</ele>
        <time>2026-04-10T09:58:49.000Z</time>
      </trkpt>
      <trkpt lat="42.90672" lon="2.10849">
        <ele>643</ele>
        <time>2026-04-10T09:59:13.000Z</time>
      </trkpt>
      <trkpt lat="42.90669" lon="2.1086">
        <ele>640</ele>
        <time>2026-04-10T10:01:03.000Z</time>
      </trkpt>
      <trkpt lat="42.90658" lon="2.1087">
        <ele>641</ele>
        <time>2026-04-10T10:01:15.000Z</time>
      </trkpt>
      <trkpt lat="42.90651" lon="2.10872">
        <ele>642</ele>
        <time>2026-04-10T10:01:21.000Z</time>
      </trkpt>
      <trkpt lat="42.9066" lon="2.10863">
        <ele>643</ele>
        <time>2026-04-10T10:01:30.000Z</time>
      </trkpt>
      <trkpt lat="42.90667" lon="2.1086">
        <ele>645</ele>
        <time>2026-04-10T10:02:00.000Z</time>
      </trkpt>
      <trkpt lat="42.9066" lon="2.1086">
        <ele>646</ele>
        <time>2026-04-10T10:05:12.000Z</time>
      </trkpt>
      <trkpt lat="42.90651" lon="2.1086">
        <ele>647</ele>
        <time>2026-04-10T10:05:19.000Z</time>
      </trkpt>
      <trkpt lat="42.90647" lon="2.1087">
        <ele>648</ele>
        <time>2026-04-10T10:05:28.000Z</time>
      </trkpt>
      <trkpt lat="42.90641" lon="2.10881">
        <ele>648</ele>
        <time>2026-04-10T10:05:47.000Z</time>
      </trkpt>
      <trkpt lat="42.90634" lon="2.1089">
        <ele>647</ele>
        <time>2026-04-10T10:07:09.000Z</time>
      </trkpt>
      <trkpt lat="42.90627" lon="2.10898">
        <ele>647</ele>
        <time>2026-04-10T10:07:17.000Z</time>
      </trkpt>
      <trkpt lat="42.90618" lon="2.10903">
        <ele>648</ele>
        <time>2026-04-10T10:07:37.000Z</time>
      </trkpt>
      <trkpt lat="42.90609" lon="2.10906">
        <ele>649</ele>
        <time>2026-04-10T10:07:48.000Z</time>
      </trkpt>
      <trkpt lat="42.906" lon="2.10903">
        <ele>650</ele>
        <time>2026-04-10T10:08:01.000Z</time>
      </trkpt>
      <trkpt lat="42.9059" lon="2.10903">
        <ele>650</ele>
        <time>2026-04-10T10:08:19.000Z</time>
      </trkpt>
      <trkpt lat="42.90581" lon="2.10909">
        <ele>650</ele>
        <time>2026-04-10T10:08:28.000Z</time>
      </trkpt>
      <trkpt lat="42.90572" lon="2.10916">
        <ele>650</ele>
        <time>2026-04-10T10:08:59.000Z</time>
      </trkpt>
      <trkpt lat="42.90564" lon="2.10921">
        <ele>650</ele>
        <time>2026-04-10T10:09:10.000Z</time>
      </trkpt>
      <trkpt lat="42.90556" lon="2.10918">
        <ele>650</ele>
        <time>2026-04-10T10:09:22.000Z</time>
      </trkpt>
      <trkpt lat="42.90547" lon="2.10915">
        <ele>650</ele>
        <time>2026-04-10T10:09:32.000Z</time>
      </trkpt>
      <trkpt lat="42.90539" lon="2.10917">
        <ele>651</ele>
        <time>2026-04-10T10:09:48.000Z</time>
      </trkpt>
      <trkpt lat="42.9053" lon="2.10918">
        <ele>652</ele>
        <time>2026-04-10T10:09:57.000Z</time>
      </trkpt>
      <trkpt lat="42.90521" lon="2.10921">
        <ele>652</ele>
        <time>2026-04-10T10:10:12.000Z</time>
      </trkpt>
      <trkpt lat="42.90512" lon="2.10924">
        <ele>653</ele>
        <time>2026-04-10T10:10:37.000Z</time>
      </trkpt>
      <trkpt lat="42.90504" lon="2.10926">
        <ele>654</ele>
        <time>2026-04-10T10:10:46.000Z</time>
      </trkpt>
      <trkpt lat="42.90503" lon="2.10936">
        <ele>654</ele>
        <time>2026-04-10T10:11:04.000Z</time>
      </trkpt>
      <trkpt lat="42.90501" lon="2.1095">
        <ele>654</ele>
        <time>2026-04-10T10:11:14.000Z</time>
      </trkpt>
      <trkpt lat="42.90496" lon="2.10961">
        <ele>655</ele>
        <time>2026-04-10T10:11:25.000Z</time>
      </trkpt>
      <trkpt lat="42.90492" lon="2.10972">
        <ele>655</ele>
        <time>2026-04-10T10:11:45.000Z</time>
      </trkpt>
      <trkpt lat="42.90491" lon="2.10984">
        <ele>656</ele>
        <time>2026-04-10T10:11:50.000Z</time>
      </trkpt>
      <trkpt lat="42.90489" lon="2.10996">
        <ele>656</ele>
        <time>2026-04-10T10:12:12.000Z</time>
      </trkpt>
      <trkpt lat="42.90487" lon="2.11008">
        <ele>656</ele>
        <time>2026-04-10T10:12:30.000Z</time>
      </trkpt>
      <trkpt lat="42.90484" lon="2.1102">
        <ele>655</ele>
        <time>2026-04-10T10:13:22.000Z</time>
      </trkpt>
      <trkpt lat="42.90478" lon="2.11031">
        <ele>655</ele>
        <time>2026-04-10T10:13:33.000Z</time>
      </trkpt>
      <trkpt lat="42.90473" lon="2.1104">
        <ele>656</ele>
        <time>2026-04-10T10:13:41.000Z</time>
      </trkpt>
      <trkpt lat="42.90467" lon="2.1105">
        <ele>657</ele>
        <time>2026-04-10T10:13:49.000Z</time>
      </trkpt>
      <trkpt lat="42.90465" lon="2.11062">
        <ele>657</ele>
        <time>2026-04-10T10:14:00.000Z</time>
      </trkpt>
      <trkpt lat="42.90461" lon="2.11071">
        <ele>658</ele>
        <time>2026-04-10T10:14:24.000Z</time>
      </trkpt>
      <trkpt lat="42.90466" lon="2.1108">
        <ele>658</ele>
        <time>2026-04-10T10:14:52.000Z</time>
      </trkpt>
      <trkpt lat="42.90474" lon="2.11081">
        <ele>658</ele>
        <time>2026-04-10T10:15:05.000Z</time>
      </trkpt>
      <trkpt lat="42.90472" lon="2.11092">
        <ele>659</ele>
        <time>2026-04-10T10:15:23.000Z</time>
      </trkpt>
      <trkpt lat="42.9047" lon="2.11103">
        <ele>659</ele>
        <time>2026-04-10T10:16:02.000Z</time>
      </trkpt>
      <trkpt lat="42.90467" lon="2.11115">
        <ele>659</ele>
        <time>2026-04-10T10:16:17.000Z</time>
      </trkpt>
      <trkpt lat="42.90463" lon="2.11129">
        <ele>659</ele>
        <time>2026-04-10T10:16:33.000Z</time>
      </trkpt>
      <trkpt lat="42.90464" lon="2.11139">
        <ele>660</ele>
        <time>2026-04-10T10:16:57.000Z</time>
      </trkpt>
      <trkpt lat="42.90472" lon="2.1114">
        <ele>660</ele>
        <time>2026-04-10T10:17:06.000Z</time>
      </trkpt>
      <trkpt lat="42.90481" lon="2.11144">
        <ele>661</ele>
        <time>2026-04-10T10:17:19.000Z</time>
      </trkpt>
      <trkpt lat="42.90489" lon="2.11151">
        <ele>662</ele>
        <time>2026-04-10T10:17:28.000Z</time>
      </trkpt>
      <trkpt lat="42.90497" lon="2.11157">
        <ele>663</ele>
        <time>2026-04-10T10:17:39.000Z</time>
      </trkpt>
      <trkpt lat="42.90504" lon="2.11166">
        <ele>664</ele>
        <time>2026-04-10T10:17:57.000Z</time>
      </trkpt>
      <trkpt lat="42.90511" lon="2.11174">
        <ele>664</ele>
        <time>2026-04-10T10:18:10.000Z</time>
      </trkpt>
      <trkpt lat="42.90514" lon="2.11187">
        <ele>664</ele>
        <time>2026-04-10T10:18:21.000Z</time>
      </trkpt>
      <trkpt lat="42.90513" lon="2.112">
        <ele>665</ele>
        <time>2026-04-10T10:18:30.000Z</time>
      </trkpt>
      <trkpt lat="42.90516" lon="2.11211">
        <ele>665</ele>
        <time>2026-04-10T10:18:44.000Z</time>
      </trkpt>
      <trkpt lat="42.90522" lon="2.1122">
        <ele>667</ele>
        <time>2026-04-10T10:18:57.000Z</time>
      </trkpt>
      <trkpt lat="42.90524" lon="2.11231">
        <ele>667</ele>
        <time>2026-04-10T10:19:10.000Z</time>
      </trkpt>
      <trkpt lat="42.90519" lon="2.11241">
        <ele>667</ele>
        <time>2026-04-10T10:19:27.000Z</time>
      </trkpt>
      <trkpt lat="42.90514" lon="2.11252">
        <ele>667</ele>
        <time>2026-04-10T10:19:49.000Z</time>
      </trkpt>
      <trkpt lat="42.90506" lon="2.11259">
        <ele>667</ele>
        <time>2026-04-10T10:19:58.000Z</time>
      </trkpt>
      <trkpt lat="42.90504" lon="2.11269">
        <ele>667</ele>
        <time>2026-04-10T10:20:10.000Z</time>
      </trkpt>
      <trkpt lat="42.90495" lon="2.11275">
        <ele>667</ele>
        <time>2026-04-10T10:20:28.000Z</time>
      </trkpt>
      <trkpt lat="42.90486" lon="2.11281">
        <ele>667</ele>
        <time>2026-04-10T10:20:37.000Z</time>
      </trkpt>
      <trkpt lat="42.90478" lon="2.11284">
        <ele>667</ele>
        <time>2026-04-10T10:21:18.000Z</time>
      </trkpt>
      <trkpt lat="42.90475" lon="2.11296">
        <ele>666</ele>
        <time>2026-04-10T10:21:26.000Z</time>
      </trkpt>
      <trkpt lat="42.90479" lon="2.11308">
        <ele>666</ele>
        <time>2026-04-10T10:21:54.000Z</time>
      </trkpt>
      <trkpt lat="42.90488" lon="2.11307">
        <ele>666</ele>
        <time>2026-04-10T10:22:11.000Z</time>
      </trkpt>
      <trkpt lat="42.90497" lon="2.11301">
        <ele>666</ele>
        <time>2026-04-10T10:22:20.000Z</time>
      </trkpt>
      <trkpt lat="42.90503" lon="2.11307">
        <ele>667</ele>
        <time>2026-04-10T10:22:33.000Z</time>
      </trkpt>
      <trkpt lat="42.90498" lon="2.11319">
        <ele>667</ele>
        <time>2026-04-10T10:23:25.000Z</time>
      </trkpt>
      <trkpt lat="42.9049" lon="2.11325">
        <ele>666</ele>
        <time>2026-04-10T10:23:42.000Z</time>
      </trkpt>
      <trkpt lat="42.90484" lon="2.11325">
        <ele>665</ele>
        <time>2026-04-10T10:24:09.000Z</time>
      </trkpt>
      <trkpt lat="42.90489" lon="2.11322">
        <ele>662</ele>
        <time>2026-04-10T10:24:33.000Z</time>
      </trkpt>
      <trkpt lat="42.90484" lon="2.11325">
        <ele>659</ele>
        <time>2026-04-10T10:25:04.000Z</time>
      </trkpt>
      <trkpt lat="42.90477" lon="2.11317">
        <ele>658</ele>
        <time>2026-04-10T10:25:21.000Z</time>
      </trkpt>
      <trkpt lat="42.90468" lon="2.11316">
        <ele>657</ele>
        <time>2026-04-10T10:25:28.000Z</time>
      </trkpt>
      <trkpt lat="42.90458" lon="2.11314">
        <ele>658</ele>
        <time>2026-04-10T10:25:49.000Z</time>
      </trkpt>
      <trkpt lat="42.90448" lon="2.11317">
        <ele>658</ele>
        <time>2026-04-10T10:26:02.000Z</time>
      </trkpt>
      <trkpt lat="42.90438" lon="2.11317">
        <ele>658</ele>
        <time>2026-04-10T10:26:13.000Z</time>
      </trkpt>
      <trkpt lat="42.90427" lon="2.11319">
        <ele>658</ele>
        <time>2026-04-10T10:26:24.000Z</time>
      </trkpt>
      <trkpt lat="42.90417" lon="2.11321">
        <ele>659</ele>
        <time>2026-04-10T10:26:36.000Z</time>
      </trkpt>
      <trkpt lat="42.90407" lon="2.11323">
        <ele>660</ele>
        <time>2026-04-10T10:26:48.000Z</time>
      </trkpt>
      <trkpt lat="42.90398" lon="2.11323">
        <ele>661</ele>
        <time>2026-04-10T10:27:00.000Z</time>
      </trkpt>
      <trkpt lat="42.90389" lon="2.11327">
        <ele>661</ele>
        <time>2026-04-10T10:27:13.000Z</time>
      </trkpt>
      <trkpt lat="42.90381" lon="2.11333">
        <ele>662</ele>
        <time>2026-04-10T10:27:24.000Z</time>
      </trkpt>
      <trkpt lat="42.9037" lon="2.11334">
        <ele>662</ele>
        <time>2026-04-10T10:28:01.000Z</time>
      </trkpt>
      <trkpt lat="42.90362" lon="2.11338">
        <ele>662</ele>
        <time>2026-04-10T10:28:10.000Z</time>
      </trkpt>
      <trkpt lat="42.90354" lon="2.11343">
        <ele>662</ele>
        <time>2026-04-10T10:28:18.000Z</time>
      </trkpt>
      <trkpt lat="42.90345" lon="2.11349">
        <ele>663</ele>
        <time>2026-04-10T10:28:33.000Z</time>
      </trkpt>
      <trkpt lat="42.90335" lon="2.11353">
        <ele>662</ele>
        <time>2026-04-10T10:28:51.000Z</time>
      </trkpt>
      <trkpt lat="42.90327" lon="2.11346">
        <ele>662</ele>
        <time>2026-04-10T10:29:10.000Z</time>
      </trkpt>
      <trkpt lat="42.90321" lon="2.1134">
        <ele>662</ele>
        <time>2026-04-10T10:29:21.000Z</time>
      </trkpt>
      <trkpt lat="42.90313" lon="2.11342">
        <ele>661</ele>
        <time>2026-04-10T10:30:00.000Z</time>
      </trkpt>
      <trkpt lat="42.90305" lon="2.11339">
        <ele>659</ele>
        <time>2026-04-10T10:30:09.000Z</time>
      </trkpt>
      <trkpt lat="42.90301" lon="2.11329">
        <ele>657</ele>
        <time>2026-04-10T10:30:28.000Z</time>
      </trkpt>
      <trkpt lat="42.90294" lon="2.1132">
        <ele>656</ele>
        <time>2026-04-10T10:30:39.000Z</time>
      </trkpt>
      <trkpt lat="42.90289" lon="2.1131">
        <ele>654</ele>
        <time>2026-04-10T10:30:51.000Z</time>
      </trkpt>
      <trkpt lat="42.90281" lon="2.11305">
        <ele>654</ele>
        <time>2026-04-10T10:31:01.000Z</time>
      </trkpt>
      <trkpt lat="42.90273" lon="2.113">
        <ele>653</ele>
        <time>2026-04-10T10:31:12.000Z</time>
      </trkpt>
      <trkpt lat="42.90264" lon="2.11294">
        <ele>654</ele>
        <time>2026-04-10T10:31:21.000Z</time>
      </trkpt>
      <trkpt lat="42.90256" lon="2.11284">
        <ele>655</ele>
        <time>2026-04-10T10:31:31.000Z</time>
      </trkpt>
      <trkpt lat="42.9025" lon="2.11275">
        <ele>656</ele>
        <time>2026-04-10T10:31:38.000Z</time>
      </trkpt>
      <trkpt lat="42.90246" lon="2.11264">
        <ele>656</ele>
        <time>2026-04-10T10:31:48.000Z</time>
      </trkpt>
      <trkpt lat="42.90248" lon="2.11254">
        <ele>655</ele>
        <time>2026-04-10T10:38:21.000Z</time>
      </trkpt>
      <trkpt lat="42.90245" lon="2.1126">
        <ele>655</ele>
        <time>2026-04-10T10:39:06.000Z</time>
      </trkpt>
      <trkpt lat="42.90248" lon="2.11269">
        <ele>653</ele>
        <time>2026-04-10T10:41:06.000Z</time>
      </trkpt>
      <trkpt lat="42.90245" lon="2.11261">
        <ele>652</ele>
        <time>2026-04-10T10:41:30.000Z</time>
      </trkpt>
      <trkpt lat="42.90244" lon="2.11252">
        <ele>652</ele>
        <time>2026-04-10T10:42:15.000Z</time>
      </trkpt>
      <trkpt lat="42.90246" lon="2.11266">
        <ele>651</ele>
        <time>2026-04-10T10:42:51.000Z</time>
      </trkpt>
      <trkpt lat="42.90246" lon="2.11277">
        <ele>651</ele>
        <time>2026-04-10T10:43:39.000Z</time>
      </trkpt>
      <trkpt lat="42.90244" lon="2.11266">
        <ele>651</ele>
        <time>2026-04-10T10:43:57.000Z</time>
      </trkpt>
      <trkpt lat="42.90241" lon="2.11256">
        <ele>649</ele>
        <time>2026-04-10T10:46:18.000Z</time>
      </trkpt>
      <trkpt lat="42.90247" lon="2.11261">
        <ele>649</ele>
        <time>2026-04-10T10:46:42.000Z</time>
      </trkpt>
      <trkpt lat="42.90254" lon="2.11261">
        <ele>649</ele>
        <time>2026-04-10T10:48:15.000Z</time>
      </trkpt>
      <trkpt lat="42.90249" lon="2.11256">
        <ele>650</ele>
        <time>2026-04-10T10:48:33.000Z</time>
      </trkpt>
      <trkpt lat="42.90242" lon="2.11257">
        <ele>651</ele>
        <time>2026-04-10T10:49:27.000Z</time>
      </trkpt>
      <trkpt lat="42.90243" lon="2.1125">
        <ele>651</ele>
        <time>2026-04-10T10:49:51.000Z</time>
      </trkpt>
      <trkpt lat="42.90244" lon="2.11256">
        <ele>651</ele>
        <time>2026-04-10T10:51:12.000Z</time>
      </trkpt>
      <trkpt lat="42.90239" lon="2.11252">
        <ele>652</ele>
        <time>2026-04-10T10:51:45.000Z</time>
      </trkpt>
      <trkpt lat="42.90244" lon="2.11256">
        <ele>652</ele>
        <time>2026-04-10T10:52:21.000Z</time>
      </trkpt>
      <trkpt lat="42.90238" lon="2.11251">
        <ele>652</ele>
        <time>2026-04-10T10:52:36.000Z</time>
      </trkpt>
      <trkpt lat="42.90241" lon="2.11257">
        <ele>652</ele>
        <time>2026-04-10T10:52:57.000Z</time>
      </trkpt>
      <trkpt lat="42.9024" lon="2.11251">
        <ele>652</ele>
        <time>2026-04-10T10:53:45.000Z</time>
      </trkpt>
      <trkpt lat="42.90243" lon="2.11255">
        <ele>653</ele>
        <time>2026-04-10T10:54:00.000Z</time>
      </trkpt>
      <trkpt lat="42.90235" lon="2.1125">
        <ele>652</ele>
        <time>2026-04-10T11:07:30.000Z</time>
      </trkpt>
      <trkpt lat="42.90226" lon="2.11245">
        <ele>652</ele>
        <time>2026-04-10T11:07:39.000Z</time>
      </trkpt>
      <trkpt lat="42.90216" lon="2.11244">
        <ele>651</ele>
        <time>2026-04-10T11:09:00.000Z</time>
      </trkpt>
      <trkpt lat="42.90207" lon="2.1124">
        <ele>650</ele>
        <time>2026-04-10T11:09:09.000Z</time>
      </trkpt>
      <trkpt lat="42.90199" lon="2.11235">
        <ele>649</ele>
        <time>2026-04-10T11:09:21.000Z</time>
      </trkpt>
      <trkpt lat="42.9019" lon="2.11231">
        <ele>648</ele>
        <time>2026-04-10T11:09:27.000Z</time>
      </trkpt>
      <trkpt lat="42.90181" lon="2.11228">
        <ele>647</ele>
        <time>2026-04-10T11:09:36.000Z</time>
      </trkpt>
      <trkpt lat="42.9017" lon="2.11225">
        <ele>646</ele>
        <time>2026-04-10T11:09:45.000Z</time>
      </trkpt>
      <trkpt lat="42.90161" lon="2.11225">
        <ele>646</ele>
        <time>2026-04-10T11:09:53.000Z</time>
      </trkpt>
      <trkpt lat="42.90156" lon="2.11235">
        <ele>646</ele>
        <time>2026-04-10T11:10:05.000Z</time>
      </trkpt>
      <trkpt lat="42.90152" lon="2.11247">
        <ele>646</ele>
        <time>2026-04-10T11:10:13.000Z</time>
      </trkpt>
      <trkpt lat="42.90148" lon="2.11259">
        <ele>647</ele>
        <time>2026-04-10T11:10:20.000Z</time>
      </trkpt>
      <trkpt lat="42.90143" lon="2.11271">
        <ele>647</ele>
        <time>2026-04-10T11:10:28.000Z</time>
      </trkpt>
      <trkpt lat="42.90138" lon="2.11284">
        <ele>647</ele>
        <time>2026-04-10T11:10:37.000Z</time>
      </trkpt>
      <trkpt lat="42.90132" lon="2.11297">
        <ele>648</ele>
        <time>2026-04-10T11:10:47.000Z</time>
      </trkpt>
      <trkpt lat="42.90125" lon="2.11306">
        <ele>648</ele>
        <time>2026-04-10T11:10:54.000Z</time>
      </trkpt>
      <trkpt lat="42.90116" lon="2.11313">
        <ele>648</ele>
        <time>2026-04-10T11:11:03.000Z</time>
      </trkpt>
      <trkpt lat="42.90108" lon="2.1132">
        <ele>648</ele>
        <time>2026-04-10T11:11:13.000Z</time>
      </trkpt>
      <trkpt lat="42.90099" lon="2.11322">
        <ele>648</ele>
        <time>2026-04-10T11:11:20.000Z</time>
      </trkpt>
      <trkpt lat="42.90091" lon="2.11326">
        <ele>648</ele>
        <time>2026-04-10T11:11:33.000Z</time>
      </trkpt>
      <trkpt lat="42.90082" lon="2.11331">
        <ele>648</ele>
        <time>2026-04-10T11:11:43.000Z</time>
      </trkpt>
      <trkpt lat="42.90071" lon="2.11335">
        <ele>649</ele>
        <time>2026-04-10T11:11:54.000Z</time>
      </trkpt>
      <trkpt lat="42.90061" lon="2.11338">
        <ele>649</ele>
        <time>2026-04-10T11:12:03.000Z</time>
      </trkpt>
      <trkpt lat="42.90052" lon="2.11341">
        <ele>649</ele>
        <time>2026-04-10T11:12:13.000Z</time>
      </trkpt>
      <trkpt lat="42.90043" lon="2.11344">
        <ele>650</ele>
        <time>2026-04-10T11:12:44.000Z</time>
      </trkpt>
      <trkpt lat="42.90035" lon="2.11346">
        <ele>650</ele>
        <time>2026-04-10T11:12:52.000Z</time>
      </trkpt>
      <trkpt lat="42.90025" lon="2.11349">
        <ele>651</ele>
        <time>2026-04-10T11:13:05.000Z</time>
      </trkpt>
      <trkpt lat="42.90016" lon="2.11353">
        <ele>651</ele>
        <time>2026-04-10T11:13:18.000Z</time>
      </trkpt>
      <trkpt lat="42.90007" lon="2.11355">
        <ele>652</ele>
        <time>2026-04-10T11:13:28.000Z</time>
      </trkpt>
      <trkpt lat="42.89997" lon="2.11353">
        <ele>652</ele>
        <time>2026-04-10T11:14:03.000Z</time>
      </trkpt>
      <trkpt lat="42.89986" lon="2.11354">
        <ele>652</ele>
        <time>2026-04-10T11:14:10.000Z</time>
      </trkpt>
      <trkpt lat="42.89976" lon="2.11356">
        <ele>651</ele>
        <time>2026-04-10T11:14:19.000Z</time>
      </trkpt>
      <trkpt lat="42.89966" lon="2.11354">
        <ele>650</ele>
        <time>2026-04-10T11:14:30.000Z</time>
      </trkpt>
      <trkpt lat="42.89958" lon="2.11349">
        <ele>650</ele>
        <time>2026-04-10T11:14:44.000Z</time>
      </trkpt>
      <trkpt lat="42.8995" lon="2.11343">
        <ele>649</ele>
        <time>2026-04-10T11:15:30.000Z</time>
      </trkpt>
      <trkpt lat="42.89941" lon="2.11339">
        <ele>648</ele>
        <time>2026-04-10T11:15:48.000Z</time>
      </trkpt>
      <trkpt lat="42.89932" lon="2.11337">
        <ele>647</ele>
        <time>2026-04-10T11:15:58.000Z</time>
      </trkpt>
      <trkpt lat="42.89923" lon="2.11336">
        <ele>647</ele>
        <time>2026-04-10T11:16:09.000Z</time>
      </trkpt>
      <trkpt lat="42.89914" lon="2.11336">
        <ele>646</ele>
        <time>2026-04-10T11:16:19.000Z</time>
      </trkpt>
      <trkpt lat="42.89905" lon="2.11331">
        <ele>645</ele>
        <time>2026-04-10T11:16:28.000Z</time>
      </trkpt>
      <trkpt lat="42.89895" lon="2.11329">
        <ele>643</ele>
        <time>2026-04-10T11:16:37.000Z</time>
      </trkpt>
      <trkpt lat="42.89884" lon="2.11329">
        <ele>643</ele>
        <time>2026-04-10T11:16:46.000Z</time>
      </trkpt>
      <trkpt lat="42.89874" lon="2.11329">
        <ele>642</ele>
        <time>2026-04-10T11:16:55.000Z</time>
      </trkpt>
      <trkpt lat="42.89865" lon="2.11327">
        <ele>641</ele>
        <time>2026-04-10T11:17:03.000Z</time>
      </trkpt>
      <trkpt lat="42.89857" lon="2.11318">
        <ele>641</ele>
        <time>2026-04-10T11:17:11.000Z</time>
      </trkpt>
      <trkpt lat="42.89849" lon="2.11311">
        <ele>640</ele>
        <time>2026-04-10T11:17:17.000Z</time>
      </trkpt>
      <trkpt lat="42.89839" lon="2.11311">
        <ele>640</ele>
        <time>2026-04-10T11:17:26.000Z</time>
      </trkpt>
      <trkpt lat="42.89828" lon="2.11308">
        <ele>638</ele>
        <time>2026-04-10T11:17:36.000Z</time>
      </trkpt>
      <trkpt lat="42.89818" lon="2.11306">
        <ele>637</ele>
        <time>2026-04-10T11:17:47.000Z</time>
      </trkpt>
      <trkpt lat="42.89808" lon="2.11302">
        <ele>636</ele>
        <time>2026-04-10T11:17:56.000Z</time>
      </trkpt>
      <trkpt lat="42.89798" lon="2.11297">
        <ele>637</ele>
        <time>2026-04-10T11:18:05.000Z</time>
      </trkpt>
      <trkpt lat="42.89789" lon="2.11296">
        <ele>633</ele>
        <time>2026-04-10T11:18:16.000Z</time>
      </trkpt>
      <trkpt lat="42.8978" lon="2.11292">
        <ele>632</ele>
        <time>2026-04-10T11:18:22.000Z</time>
      </trkpt>
      <trkpt lat="42.8977" lon="2.11287">
        <ele>631</ele>
        <time>2026-04-10T11:18:29.000Z</time>
      </trkpt>
    </trkseg>
  </trk>
</gpx>